^^
Station Historical Data
Daily Summary for January 4, 2018 Units:  Both    English   Metric
« Previous Day
Next Day »
Daily Weekly Monthly Yearly Custom
  High: Low: Average:
Temperature: TemperatureC °F /  -17.8 °C 1.1 °F /  -17.2 °C 1.8 °F /  -16.8 °C
Dew Point: DewpointC °F /  -17.8 °C 0.1 °F /  -17.7 °C 0.9 °F /  -17.3 °C
Humidity: Humidity% 93% 93%
Wind Speed: WindSpeedKMHmph /  0km/h - 3.3mph /  5.3km/h
Wind Gust: WindSpeedGustKMHmph /  0km/h - -
Wind- - ESE
Pressure: PressurehPa in /  0 hPa 992.8 in /  33616.2 hPa -
Precipitation: 3.3 in /  83.82 mm    
Historical Graphs
 
 
Tabular Data for January 4, 2018
Time Temperature Dew Point Pressure Wind Wind Speed Wind Gust Humidity Rainfall Rate (Hourly) solar Conditions
TemperatureC °F /  -17.8 °C DewpointC °F /  -17.8 °C PressurehPain /  0hPa Calm     Humidity% HourlyPrecipMMin /  0mm SoftwareType W/m2 Conditions
00:01 1.2 °F /  -17.1 °C 0.2 °F /  -17.7 °C 998.5in /  33809.2hPa ESE 4.2mph /  6.8km/h 6.4mph /  10.3km/h 93% 0.0in /  0mm WeatherDisplay:10.37 W/m2 RA
00:05 1.2 °F /  -17.1 °C 0.2 °F /  -17.7 °C 998.5in /  33809.2hPa ESE 3.7mph /  6km/h 13.0mph /  20.9km/h 93% 0.0in /  0mm WeatherDisplay:10.37 W/m2 RA
00:10 1.2 °F /  -17.1 °C 0.2 °F /  -17.7 °C 998.5in /  33809.2hPa ESE 2.1mph /  3.4km/h   93% 0.0in /  0mm WeatherDisplay:10.37 W/m2 FEW
00:15 1.2 °F /  -17.1 °C 0.2 °F /  -17.7 °C 998.5in /  33809.2hPa East 4.7mph /  7.6km/h 9.3mph /  15km/h 93% 0.0in /  0mm WeatherDisplay:10.37 W/m2 FEW
00:20 1.2 °F /  -17.1 °C 0.2 °F /  -17.7 °C 998.5in /  33809.2hPa Calm     93% 0.0in /  0mm WeatherDisplay:10.37 W/m2 FEW
00:25 1.2 °F /  -17.1 °C 0.2 °F /  -17.7 °C 998.5in /  33809.2hPa Calm     93% 0.0in /  0mm WeatherDisplay:10.37 W/m2 FEW
00:30 1.2 °F /  -17.1 °C 0.3 °F /  -17.6 °C 998.5in /  33809.2hPa ESE 4.8mph /  7.7km/h 13.0mph /  20.9km/h 94% 0.0in /  0mm WeatherDisplay:10.37 W/m2 FEW
00:32 1.2 °F /  -17.1 °C 0.4 °F /  -17.6 °C 998.5in /  33809.2hPa East 6.3mph /  10.1km/h 13.0mph /  20.9km/h 94% 0.0in /  0mm WeatherDisplay:10.37 W/m2 FEW
00:37 1.2 °F /  -17.1 °C 0.3 °F /  -17.6 °C 998.5in /  33809.2hPa East 0.3mph /  0.5km/h 4.8mph /  7.7km/h 94% 0.0in /  0mm WeatherDisplay:10.37 W/m2 FEW
00:38 1.2 °F /  -17.1 °C 0.3 °F /  -17.6 °C 998.5in /  33809.2hPa ESE 2.4mph /  3.9km/h 9.3mph /  15km/h 94% 0.0in /  0mm WeatherDisplay:10.37 W/m2 FEW
00:43 1.2 °F /  -17.1 °C 0.4 °F /  -17.6 °C 998.2in /  33799.1hPa Calm     94% 0.0in /  0mm WeatherDisplay:10.37 W/m2 FEW
00:48 1.2 °F /  -17.1 °C 0.4 °F /  -17.6 °C 998.2in /  33799.1hPa ENE 4.8mph /  7.7km/h 11.1mph /  17.9km/h 94% 0.0in /  0mm WeatherDisplay:10.37 W/m2 FEW
00:50 1.2 °F /  -17.1 °C 0.4 °F /  -17.6 °C 998.2in /  33799.1hPa ENE 3.4mph /  5.5km/h 5.6mph /  9km/h 94% 0.0in /  0mm WeatherDisplay:10.37 W/m2 FEW
00:55 1.3 °F /  -17.1 °C 0.4 °F /  -17.6 °C 998.2in /  33799.1hPa Calm     94% 0.0in /  0mm WeatherDisplay:10.37 W/m2 FEW
01:01 1.3 °F /  -17.1 °C 0.4 °F /  -17.6 °C 998.2in /  33799.1hPa Calm     94% 0.0in /  0mm WeatherDisplay:10.37 W/m2 FEW
01:06 1.3 °F /  -17.1 °C 0.4 °F /  -17.6 °C 998.2in /  33799.1hPa Calm   1.6mph /  2.6km/h 94% 0.0in /  0mm WeatherDisplay:10.37 W/m2 FEW
01:07 1.3 °F /  -17.1 °C 0.4 °F /  -17.6 °C 998.2in /  33799.1hPa ENE 1.3mph /  2.1km/h 3.7mph /  6km/h 94% 0.0in /  0mm WeatherDisplay:10.37 W/m2 FEW
01:13 1.3 °F /  -17.1 °C 0.4 °F /  -17.6 °C 998.2in /  33799.1hPa Calm     94% 0.0in /  0mm WeatherDisplay:10.37 W/m2 FEW
01:15 1.3 °F /  -17.1 °C 0.4 °F /  -17.6 °C 998.2in /  33799.1hPa Calm     94% 0.0in /  0mm WeatherDisplay:10.37 W/m2 FEW
01:21 1.3 °F /  -17.1 °C 0.4 °F /  -17.6 °C 997.9in /  33788.9hPa Calm     94% 0.0in /  0mm WeatherDisplay:10.37 W/m2 FEW
01:25 1.3 °F /  -17.1 °C 0.4 °F /  -17.6 °C 997.9in /  33788.9hPa ENE 0.8mph /  1.3km/h 5.6mph /  9km/h 94% 0.0in /  0mm WeatherDisplay:10.37 W/m2 FEW
01:26 1.3 °F /  -17.1 °C 0.4 °F /  -17.6 °C 997.9in /  33788.9hPa Calm     94% 0.0in /  0mm WeatherDisplay:10.37 W/m2 FEW
01:31 1.3 °F /  -17.1 °C 0.4 °F /  -17.6 °C 997.9in /  33788.9hPa ENE 0.2mph /  0.3km/h 1.9mph /  3.1km/h 94% 0.0in /  0mm WeatherDisplay:10.37 W/m2 FEW
01:36 1.3 °F /  -17.1 °C 0.4 °F /  -17.6 °C 997.9in /  33788.9hPa ENE 1.4mph /  2.3km/h 5.6mph /  9km/h 94% 0.0in /  0mm WeatherDisplay:10.37 W/m2 FEW
01:44 1.3 °F /  -17.1 °C 0.4 °F /  -17.6 °C 997.9in /  33788.9hPa Calm     94% 0.0in /  0mm WeatherDisplay:10.37 W/m2 FEW
01:49 1.3 °F /  -17.1 °C 0.4 °F /  -17.6 °C 997.9in /  33788.9hPa Calm     94% 0.0in /  0mm WeatherDisplay:10.37 W/m2 FEW
02:11 1.3 °F /  -17.1 °C 0.4 °F /  -17.6 °C 997.5in /  33775.4hPa Calm   3.7mph /  6km/h 94% 0.0in /  0mm WeatherDisplay:10.37 W/m2 FEW
02:19 1.3 °F /  -17.1 °C 0.5 °F /  -17.5 °C 997.5in /  33775.4hPa ENE 0.2mph /  0.3km/h 6.4mph /  10.3km/h 94% 0.0in /  0mm WeatherDisplay:10.37 W/m2 FEW
02:30 1.3 °F /  -17.1 °C 0.3 °F /  -17.6 °C 997.5in /  33775.4hPa Calm   7.4mph /  11.9km/h 93% 0.0in /  0mm WeatherDisplay:10.37 W/m2 FEW
02:34 1.3 °F /  -17.1 °C 0.3 °F /  -17.6 °C 997.5in /  33775.4hPa Calm     93% 0.0in /  0mm WeatherDisplay:10.37 W/m2 FEW
02:39 1.3 °F /  -17.1 °C 0.3 °F /  -17.6 °C 997.5in /  33775.4hPa ENE 0.8mph /  1.3km/h 3.7mph /  6km/h 93% 0.0in /  0mm WeatherDisplay:10.37 W/m2 FEW
02:44 1.3 °F /  -17.1 °C 0.3 °F /  -17.6 °C 997.5in /  33775.4hPa Calm     93% 0.0in /  0mm WeatherDisplay:10.37 W/m2 FEW
02:47 1.4 °F /  -17 °C 0.4 °F /  -17.6 °C 997.5in /  33775.4hPa Calm     93% 0.0in /  0mm WeatherDisplay:10.37 W/m2 FEW
02:52 1.4 °F /  -17 °C 0.4 °F /  -17.6 °C 997.5in /  33775.4hPa ENE 3.2mph /  5.1km/h 5.6mph /  9km/h 93% 0.0in /  0mm WeatherDisplay:10.37 W/m2 FEW
02:53 1.4 °F /  -17 °C 0.4 °F /  -17.6 °C 997.5in /  33775.4hPa East 4.0mph /  6.4km/h 5.6mph /  9km/h 93% 0.0in /  0mm WeatherDisplay:10.37 W/m2 FEW
02:58 1.4 °F /  -17 °C 0.4 °F /  -17.6 °C 997.5in /  33775.4hPa Calm     93% 0.0in /  0mm WeatherDisplay:10.37 W/m2 FEW
03:03 1.4 °F /  -17 °C 0.4 °F /  -17.6 °C 997.5in /  33775.4hPa ENE 2.3mph /  3.7km/h 3.7mph /  6km/h 93% 0.0in /  0mm WeatherDisplay:10.37 W/m2 FEW
03:08 1.4 °F /  -17 °C 0.4 °F /  -17.6 °C 997.5in /  33775.4hPa Calm     93% 0.0in /  0mm WeatherDisplay:10.37 W/m2 FEW
03:10 1.4 °F /  -17 °C 0.4 °F /  -17.6 °C 997.5in /  33775.4hPa ENE 2.9mph /  4.7km/h 5.6mph /  9km/h 93% 0.0in /  0mm WeatherDisplay:10.37 W/m2 FEW
03:16 1.5 °F /  -16.9 °C 0.5 °F /  -17.5 °C 997.5in /  33775.4hPa Calm     93% 0.0in /  0mm WeatherDisplay:10.37 W/m2 FEW
03:21 1.5 °F /  -16.9 °C 0.5 °F /  -17.5 °C 997.5in /  33775.4hPa Calm     93% 0.0in /  0mm WeatherDisplay:10.37 W/m2 FEW
03:36 1.7 °F /  -16.8 °C 0.7 °F /  -17.4 °C 997.5in /  33775.4hPa ESE 1.1mph /  1.8km/h 11.3mph /  18.2km/h 93% 0.0in /  0mm WeatherDisplay:10.37 W/m2 FEW
03:37 1.7 °F /  -16.8 °C 0.7 °F /  -17.4 °C 997.5in /  33775.4hPa ESE 4.2mph /  6.8km/h 11.1mph /  17.9km/h 93% 0.0in /  0mm WeatherDisplay:10.37 W/m2 FEW
03:38 1.7 °F /  -16.8 °C 0.7 °F /  -17.4 °C 997.5in /  33775.4hPa East 4.3mph /  6.9km/h 5.6mph /  9km/h 93% 0.0in /  0mm WeatherDisplay:10.37 W/m2 FEW
03:44 1.7 °F /  -16.8 °C 0.7 °F /  -17.4 °C 997.5in /  33775.4hPa Calm     93% 0.0in /  0mm WeatherDisplay:10.37 W/m2 FEW
03:49 1.8 °F /  -16.8 °C 0.8 °F /  -17.3 °C 997.5in /  33775.4hPa East 2.7mph /  4.3km/h 9.3mph /  15km/h 93% 0.0in /  0mm WeatherDisplay:10.37 W/m2 FEW
03:54 1.8 °F /  -16.8 °C 0.8 °F /  -17.3 °C 997.5in /  33775.4hPa ESE 6.0mph /  9.7km/h 11.1mph /  17.9km/h 93% 0.0in /  0mm WeatherDisplay:10.37 W/m2 FEW
03:59 1.8 °F /  -16.8 °C 0.8 °F /  -17.3 °C 997.5in /  33775.4hPa East 5.3mph /  8.5km/h 9.3mph /  15km/h 93% 0.0in /  0mm WeatherDisplay:10.37 W/m2 FEW
04:01 1.8 °F /  -16.8 °C 0.8 °F /  -17.3 °C 997.5in /  33775.4hPa East 4.2mph /  6.8km/h 6.4mph /  10.3km/h 93% 0.0in /  0mm WeatherDisplay:10.37 W/m2 FEW
04:06 1.8 °F /  -16.8 °C 0.8 °F /  -17.3 °C 997.5in /  33775.4hPa ENE 3.2mph /  5.1km/h 9.3mph /  15km/h 93% 0.0in /  0mm WeatherDisplay:10.37 W/m2 FEW
04:15 1.8 °F /  -16.8 °C 0.8 °F /  -17.3 °C 997.5in /  33775.4hPa East 5.6mph /  9km/h 13.0mph /  20.9km/h 93% 0.0in /  0mm WeatherDisplay:10.37 W/m2 FEW
04:17 1.8 °F /  -16.8 °C 0.8 °F /  -17.3 °C 997.5in /  33775.4hPa ENE 6.6mph /  10.6km/h 14.8mph /  23.8km/h 93% 0.0in /  0mm WeatherDisplay:10.37 W/m2 FEW
04:24 1.8 °F /  -16.8 °C 0.8 °F /  -17.3 °C 997.9in /  33788.9hPa ESE 4.7mph /  7.6km/h 11.1mph /  17.9km/h 93% 0.0in /  0mm WeatherDisplay:10.37 W/m2 FEW
04:29 1.8 °F /  -16.8 °C 0.8 °F /  -17.3 °C 997.9in /  33788.9hPa East 2.3mph /  3.7km/h 5.6mph /  9km/h 93% 0.0in /  0mm WeatherDisplay:10.37 W/m2 FEW
04:32 1.8 °F /  -16.8 °C 0.8 °F /  -17.3 °C 997.9in /  33788.9hPa East 1.4mph /  2.3km/h 5.6mph /  9km/h 93% 0.3in /  7.62mm WeatherDisplay:10.37 W/m2 RA
04:38 1.7 °F /  -16.8 °C 0.7 °F /  -17.4 °C 997.9in /  33788.9hPa Calm     93% 0.3in /  7.62mm WeatherDisplay:10.37 W/m2 RA
04:43 1.6 °F /  -16.9 °C 0.6 °F /  -17.4 °C 997.9in /  33788.9hPa ENE 7.7mph /  12.4km/h 13.0mph /  20.9km/h 93% 0.5in /  12.7mm WeatherDisplay:10.37 W/m2 RA
04:48 1.5 °F /  -16.9 °C 0.5 °F /  -17.5 °C 997.9in /  33788.9hPa SE 2.1mph /  3.4km/h 6.4mph /  10.3km/h 93% 0.5in /  12.7mm WeatherDisplay:10.37 W/m2 RA
04:56 1.3 °F /  -17.1 °C 0.5 °F /  -17.5 °C 997.9in /  33788.9hPa ENE 1.4mph /  2.3km/h 5.6mph /  9km/h 94% 0.5in /  12.7mm WeatherDisplay:10.37 W/m2 RA
05:01 1.2 °F /  -17.1 °C 0.4 °F /  -17.6 °C 997.9in /  33788.9hPa East 3.4mph /  5.5km/h 5.6mph /  9km/h 94% 0.5in /  12.7mm WeatherDisplay:10.37 W/m2 RA
05:06 1.2 °F /  -17.1 °C 0.2 °F /  -17.7 °C 997.5in /  33775.4hPa Calm     93% 0.5in /  12.7mm WeatherDisplay:10.37 W/m2 FEW
05:11 1.1 °F /  -17.2 °C 0.1 °F /  -17.7 °C 997.9in /  33788.9hPa ENE 0.3mph /  0.5km/h 3.2mph /  5.1km/h 93% 0.5in /  12.7mm WeatherDisplay:10.37 W/m2 FEW
05:16 1.1 °F /  -17.2 °C 0.1 °F /  -17.7 °C 997.9in /  33788.9hPa ENE 3.2mph /  5.1km/h 5.6mph /  9km/h 93% 0.5in /  12.7mm WeatherDisplay:10.37 W/m2 FEW
05:21 1.1 °F /  -17.2 °C 0.1 °F /  -17.7 °C 997.9in /  33788.9hPa East 1.6mph /  2.6km/h 7.4mph /  11.9km/h 93% 0.5in /  12.7mm WeatherDisplay:10.37 W/m2 FEW
05:26 1.1 °F /  -17.2 °C 0.1 °F /  -17.7 °C 997.9in /  33788.9hPa Calm   3.7mph /  6km/h 93% 0.8in /  20.32mm WeatherDisplay:10.37 W/m2 RA
05:31 1.1 °F /  -17.2 °C 0.1 °F /  -17.7 °C 997.5in /  33775.4hPa Calm   1.9mph /  3.1km/h 93% 0.5in /  12.7mm WeatherDisplay:10.37 W/m2 RA
05:38 1.1 °F /  -17.2 °C 0.1 °F /  -17.7 °C 997.5in /  33775.4hPa NNE 5.1mph /  8.2km/h 14.8mph /  23.8km/h 93% 0.5in /  12.7mm WeatherDisplay:10.37 W/m2 FEW
05:41 1.1 °F /  -17.2 °C 0.1 °F /  -17.7 °C 997.5in /  33775.4hPa East 1.4mph /  2.3km/h 4.8mph /  7.7km/h 93% 0.5in /  12.7mm WeatherDisplay:10.37 W/m2 FEW
05:46 1.1 °F /  -17.2 °C 0.1 °F /  -17.7 °C 997.5in /  33775.4hPa Calm   3.7mph /  6km/h 93% 0.5in /  12.7mm WeatherDisplay:10.37 W/m2 FEW
05:51 1.1 °F /  -17.2 °C 0.1 °F /  -17.7 °C 997.5in /  33775.4hPa ESE 6.0mph /  9.7km/h 13.0mph /  20.9km/h 93% 0.5in /  12.7mm WeatherDisplay:10.37 W/m2 FEW
05:55 1.2 °F /  -17.1 °C 0.2 °F /  -17.7 °C 997.5in /  33775.4hPa ESE 5.8mph /  9.3km/h 16.7mph /  26.9km/h 93% 0.3in /  7.62mm WeatherDisplay:10.37 W/m2 FEW
06:14 1.3 °F /  -17.1 °C 0.3 °F /  -17.6 °C 997.5in /  33775.4hPa ESE 7.7mph /  12.4km/h 14.8mph /  23.8km/h 93% 0.3in /  7.62mm WeatherDisplay:10.37 W/m2 FEW
06:15 1.3 °F /  -17.1 °C 0.3 °F /  -17.6 °C 997.5in /  33775.4hPa ESE 1.4mph /  2.3km/h 14.8mph /  23.8km/h 93% 0.3in /  7.62mm WeatherDisplay:10.37 W/m2 FEW
06:16 1.3 °F /  -17.1 °C 0.3 °F /  -17.6 °C 997.5in /  33775.4hPa Calm     93% 0.3in /  7.62mm WeatherDisplay:10.37 W/m2 FEW
06:17 1.3 °F /  -17.1 °C 0.3 °F /  -17.6 °C 997.5in /  33775.4hPa NE 2.1mph /  3.4km/h 7.4mph /  11.9km/h 93% 0.3in /  7.62mm WeatherDisplay:10.37 W/m2 FEW
06:18 1.3 °F /  -17.1 °C 0.3 °F /  -17.6 °C 997.9in /  33788.9hPa East 11.3mph /  18.2km/h 18.5mph /  29.8km/h 93% 0.3in /  7.62mm WeatherDisplay:10.37 W/m2 FEW
06:19 1.3 °F /  -17.1 °C 0.3 °F /  -17.6 °C 997.5in /  33775.4hPa ENE 5.0mph /  8km/h 13.0mph /  20.9km/h 93% 0.3in /  7.62mm WeatherDisplay:10.37 W/m2 FEW
06:21 1.3 °F /  -17.1 °C 0.3 °F /  -17.6 °C 997.5in /  33775.4hPa East 4.2mph /  6.8km/h 6.4mph /  10.3km/h 93% 0.3in /  7.62mm WeatherDisplay:10.37 W/m2 FEW
06:22 1.3 °F /  -17.1 °C 0.3 °F /  -17.6 °C 997.5in /  33775.4hPa ENE 5.3mph /  8.5km/h 9.3mph /  15km/h 93% 0.0in /  0mm WeatherDisplay:10.37 W/m2 FEW
06:25 1.3 °F /  -17.1 °C 0.3 °F /  -17.6 °C 997.5in /  33775.4hPa East 5.8mph /  9.3km/h 9.3mph /  15km/h 93% 0.0in /  0mm WeatherDisplay:10.37 W/m2 FEW
06:26 1.3 °F /  -17.1 °C 0.3 °F /  -17.6 °C 997.5in /  33775.4hPa East 0.2mph /  0.3km/h 6.4mph /  10.3km/h 93% 0.0in /  0mm WeatherDisplay:10.37 W/m2 FEW
06:27 1.3 °F /  -17.1 °C 0.3 °F /  -17.6 °C 997.5in /  33775.4hPa ENE 5.8mph /  9.3km/h 9.3mph /  15km/h 93% 0.0in /  0mm WeatherDisplay:10.37 W/m2 FEW
06:28 1.3 °F /  -17.1 °C 0.3 °F /  -17.6 °C 997.5in /  33775.4hPa ENE 6.4mph /  10.3km/h 14.8mph /  23.8km/h 93% 0.0in /  0mm WeatherDisplay:10.37 W/m2 FEW
06:38 1.3 °F /  -17.1 °C 0.3 °F /  -17.6 °C 997.5in /  33775.4hPa ESE 4.0mph /  6.4km/h 11.1mph /  17.9km/h 93% 0.0in /  0mm WeatherDisplay:10.37 W/m2 FEW
06:44 1.3 °F /  -17.1 °C 0.3 °F /  -17.6 °C 997.9in /  33788.9hPa NE 7.7mph /  12.4km/h 13.0mph /  20.9km/h 93% 0.0in /  0mm WeatherDisplay:10.37 W/m2 FEW
06:49 1.3 °F /  -17.1 °C 0.3 °F /  -17.6 °C 997.5in /  33775.4hPa ENE 0.6mph /  1km/h 5.6mph /  9km/h 93% 0.0in /  0mm WeatherDisplay:10.37 W/m2 FEW
06:54 1.3 °F /  -17.1 °C 0.3 °F /  -17.6 °C 997.5in /  33775.4hPa ESE 3.1mph /  5km/h 6.4mph /  10.3km/h 93% 0.0in /  0mm WeatherDisplay:10.37 W/m2 FEW
06:55 1.3 °F /  -17.1 °C 0.3 °F /  -17.6 °C 997.5in /  33775.4hPa ESE 5.3mph /  8.5km/h 11.1mph /  17.9km/h 93% 0.0in /  0mm WeatherDisplay:10.37 W/m2 FEW
07:00 1.3 °F /  -17.1 °C 0.3 °F /  -17.6 °C 997.5in /  33775.4hPa ENE 3.1mph /  5km/h 5.6mph /  9km/h 93% 0.0in /  0mm WeatherDisplay:10.37 W/m2 FEW
07:05 1.3 °F /  -17.1 °C 0.3 °F /  -17.6 °C 997.5in /  33775.4hPa Calm     93% 0.0in /  0mm WeatherDisplay:10.37 W/m2 FEW
07:06 1.3 °F /  -17.1 °C 0.3 °F /  -17.6 °C 997.5in /  33775.4hPa ENE 3.7mph /  6km/h 9.3mph /  15km/h 93% 0.0in /  0mm WeatherDisplay:10.37 W/m2 FEW
07:10 1.3 °F /  -17.1 °C 0.3 °F /  -17.6 °C 997.5in /  33775.4hPa East 6.9mph /  11.1km/h 18.5mph /  29.8km/h 93% 0.0in /  0mm WeatherDisplay:10.37 W/m2 FEW
07:16 1.3 °F /  -17.1 °C 0.3 °F /  -17.6 °C 997.2in /  33765.2hPa ENE 6.3mph /  10.1km/h 13.0mph /  20.9km/h 93% 0.0in /  0mm WeatherDisplay:10.37 W/m2 FEW
07:19 1.3 °F /  -17.1 °C 0.3 °F /  -17.6 °C 997.5in /  33775.4hPa ESE 0.6mph /  1km/h 11.1mph /  17.9km/h 93% 0.0in /  0mm WeatherDisplay:10.37 W/m2 FEW
07:24 1.3 °F /  -17.1 °C 0.3 °F /  -17.6 °C 997.2in /  33765.2hPa ENE 4.3mph /  6.9km/h 13.0mph /  20.9km/h 93% 0.0in /  0mm WeatherDisplay:10.37 W/m2 FEW
07:29 1.3 °F /  -17.1 °C 0.3 °F /  -17.6 °C 997.2in /  33765.2hPa ENE 6.4mph /  10.3km/h 13.0mph /  20.9km/h 93% 0.0in /  0mm WeatherDisplay:10.37 W/m2 FEW
07:34 1.3 °F /  -17.1 °C 0.3 °F /  -17.6 °C 997.2in /  33765.2hPa East 4.8mph /  7.7km/h 13.0mph /  20.9km/h 93% 0.0in /  0mm WeatherDisplay:10.37 W/m2 FEW
07:36 1.3 °F /  -17.1 °C 0.3 °F /  -17.6 °C 997.2in /  33765.2hPa East 3.2mph /  5.1km/h 6.4mph /  10.3km/h 93% 0.0in /  0mm WeatherDisplay:10.37 W/m2 FEW
07:40 1.3 °F /  -17.1 °C 0.3 °F /  -17.6 °C 997.2in /  33765.2hPa Calm     93% 0.0in /  0mm WeatherDisplay:10.37 W/m2 FEW
07:45 1.3 °F /  -17.1 °C 0.3 °F /  -17.6 °C 997.2in /  33765.2hPa ESE 6.8mph /  10.9km/h 11.3mph /  18.2km/h 93% 0.0in /  0mm WeatherDisplay:10.37 W/m2 FEW
07:47 1.3 °F /  -17.1 °C 0.3 °F /  -17.6 °C 997.2in /  33765.2hPa ESE 2.6mph /  4.2km/h 9.3mph /  15km/h 93% 0.0in /  0mm WeatherDisplay:10.37 W/m2 FEW
07:50 1.3 °F /  -17.1 °C 0.3 °F /  -17.6 °C 997.2in /  33765.2hPa Calm   5.6mph /  9km/h 93% 0.0in /  0mm WeatherDisplay:10.37 W/m2 FEW
07:54 1.3 °F /  -17.1 °C 0.3 °F /  -17.6 °C 997.2in /  33765.2hPa ESE 3.5mph /  5.6km/h 13.0mph /  20.9km/h 93% 0.0in /  0mm WeatherDisplay:10.37 W/m2 FEW
07:57 1.3 °F /  -17.1 °C 0.3 °F /  -17.6 °C 997.2in /  33765.2hPa ESE 1.0mph /  1.6km/h 5.6mph /  9km/h 93% 0.0in /  0mm WeatherDisplay:10.37 W/m2 FEW
08:02 1.3 °F /  -17.1 °C 0.3 °F /  -17.6 °C 997.2in /  33765.2hPa ESE 0.3mph /  0.5km/h 5.6mph /  9km/h 93% 0.0in /  0mm WeatherDisplay:10.37 W/m2 FEW
08:04 1.3 °F /  -17.1 °C 0.3 °F /  -17.6 °C 997.2in /  33765.2hPa Calm     93% 0.0in /  0mm WeatherDisplay:10.37 W/m2 FEW
08:07 1.3 °F /  -17.1 °C 0.3 °F /  -17.6 °C 997.2in /  33765.2hPa Calm     93% 0.0in /  0mm WeatherDisplay:10.37 W/m2 FEW
08:12 1.3 °F /  -17.1 °C 0.3 °F /  -17.6 °C 997.2in /  33765.2hPa East 3.9mph /  6.3km/h 5.6mph /  9km/h 93% 0.0in /  0mm WeatherDisplay:10.37 W/m2 FEW
08:13 1.3 °F /  -17.1 °C 0.3 °F /  -17.6 °C 997.2in /  33765.2hPa East 6.0mph /  9.7km/h 9.3mph /  15km/h 93% 0.0in /  0mm WeatherDisplay:10.37 W/m2 FEW
08:18 1.3 °F /  -17.1 °C 0.3 °F /  -17.6 °C 997.2in /  33765.2hPa ESE 7.1mph /  11.4km/h 13.0mph /  20.9km/h 93% 0.0in /  0mm WeatherDisplay:10.37 W/m2 FEW
08:19 1.3 °F /  -17.1 °C 0.3 °F /  -17.6 °C 997.2in /  33765.2hPa Calm   3.7mph /  6km/h 93% 0.0in /  0mm WeatherDisplay:10.37 W/m2 FEW
08:22 1.3 °F /  -17.1 °C 0.3 °F /  -17.6 °C 997.2in /  33765.2hPa East 1.4mph /  2.3km/h 5.6mph /  9km/h 93% 0.0in /  0mm WeatherDisplay:10.37 W/m2 FEW
08:27 1.3 °F /  -17.1 °C 0.3 °F /  -17.6 °C 997.2in /  33765.2hPa NE 2.6mph /  4.2km/h 5.6mph /  9km/h 93% 0.0in /  0mm WeatherDisplay:10.37 W/m2 FEW
08:29 1.3 °F /  -17.1 °C 0.3 °F /  -17.6 °C 997.2in /  33765.2hPa Calm     93% 0.0in /  0mm WeatherDisplay:10.37 W/m2 FEW
08:33 1.3 °F /  -17.1 °C 0.3 °F /  -17.6 °C 997.2in /  33765.2hPa NE 0.2mph /  0.3km/h 5.6mph /  9km/h 93% 0.0in /  0mm WeatherDisplay:10.37 W/m2 FEW
08:34 1.4 °F /  -17 °C 0.4 °F /  -17.6 °C 997.2in /  33765.2hPa ENE 0.6mph /  1km/h 4.8mph /  7.7km/h 93% 0.0in /  0mm WeatherDisplay:10.37 W/m2 FEW
08:35 1.4 °F /  -17 °C 0.4 °F /  -17.6 °C 997.2in /  33765.2hPa ENE 3.5mph /  5.6km/h 9.3mph /  15km/h 93% 0.0in /  0mm WeatherDisplay:10.37 W/m2 FEW
08:40 1.4 °F /  -17 °C 0.4 °F /  -17.6 °C 997.2in /  33765.2hPa ENE 0.8mph /  1.3km/h 6.4mph /  10.3km/h 93% 0.0in /  0mm WeatherDisplay:10.37 W/m2 FEW
08:42 1.4 °F /  -17 °C 0.4 °F /  -17.6 °C 997.2in /  33765.2hPa East 4.0mph /  6.4km/h 11.1mph /  17.9km/h 93% 0.0in /  0mm WeatherDisplay:10.37 W/m2 FEW
08:44 1.4 °F /  -17 °C 0.4 °F /  -17.6 °C 997.2in /  33765.2hPa East 1.3mph /  2.1km/h 7.4mph /  11.9km/h 93% 0.0in /  0mm WeatherDisplay:10.37 W/m2 FEW
08:47 1.4 °F /  -17 °C 0.4 °F /  -17.6 °C 997.2in /  33765.2hPa East 0.5mph /  0.8km/h 6.4mph /  10.3km/h 93% 0.0in /  0mm WeatherDisplay:10.37 W/m2 FEW
08:50 1.4 °F /  -17 °C 0.4 °F /  -17.6 °C 997.2in /  33765.2hPa East 1.1mph /  1.8km/h 5.6mph /  9km/h 93% 0.0in /  0mm WeatherDisplay:10.37 W/m2 FEW
08:55 1.4 °F /  -17 °C 0.4 °F /  -17.6 °C 997.2in /  33765.2hPa East 0.2mph /  0.3km/h 6.4mph /  10.3km/h 93% 0.0in /  0mm WeatherDisplay:10.37 W/m2 FEW
08:57 1.4 °F /  -17 °C 0.4 °F /  -17.6 °C 997.2in /  33765.2hPa East 1.6mph /  2.6km/h 11.1mph /  17.9km/h 93% 0.0in /  0mm WeatherDisplay:10.37 W/m2 FEW
09:02 1.4 °F /  -17 °C 0.4 °F /  -17.6 °C 997.5in /  33775.4hPa East 3.1mph /  5km/h 13.0mph /  20.9km/h 93% 0.0in /  0mm WeatherDisplay:10.37 W/m2 FEW
09:07 1.4 °F /  -17 °C 0.4 °F /  -17.6 °C 997.5in /  33775.4hPa East 3.2mph /  5.1km/h 12.9mph /  20.8km/h 93% 0.0in /  0mm WeatherDisplay:10.37 W/m2 FEW
09:10 1.4 °F /  -17 °C 0.4 °F /  -17.6 °C 997.5in /  33775.4hPa ESE 2.3mph /  3.7km/h 6.4mph /  10.3km/h 93% 0.0in /  0mm WeatherDisplay:10.37 W/m2 FEW
09:15 1.5 °F /  -16.9 °C 0.5 °F /  -17.5 °C 997.5in /  33775.4hPa ESE 2.6mph /  4.2km/h 9.3mph /  15km/h 93% 0.0in /  0mm WeatherDisplay:10.37 W/m2 FEW
09:20 1.5 °F /  -16.9 °C 0.5 °F /  -17.5 °C 997.5in /  33775.4hPa Calm   5.6mph /  9km/h 93% 0.0in /  0mm WeatherDisplay:10.37 W/m2 FEW
09:23 1.5 °F /  -16.9 °C 0.5 °F /  -17.5 °C 997.5in /  33775.4hPa Calm     93% 0.0in /  0mm WeatherDisplay:10.37 W/m2 FEW
09:28 1.6 °F /  -16.9 °C 0.6 °F /  -17.4 °C 997.5in /  33775.4hPa ESE 6.8mph /  10.9km/h 14.8mph /  23.8km/h 93% 0.0in /  0mm WeatherDisplay:10.37 W/m2 FEW
09:29 1.6 °F /  -16.9 °C 0.6 °F /  -17.4 °C 997.5in /  33775.4hPa ESE 1.0mph /  1.6km/h 5.6mph /  9km/h 93% 0.0in /  0mm WeatherDisplay:10.37 W/m2 FEW
09:32 1.6 °F /  -16.9 °C 0.6 °F /  -17.4 °C 997.5in /  33775.4hPa SE 3.7mph /  6km/h 16.1mph /  25.9km/h 93% 0.0in /  0mm WeatherDisplay:10.37 W/m2 FEW
09:35 1.6 °F /  -16.9 °C 0.6 °F /  -17.4 °C 997.5in /  33775.4hPa ESE 0.3mph /  0.5km/h 5.6mph /  9km/h 93% 0.0in /  0mm WeatherDisplay:10.37 W/m2 FEW
09:40 1.6 °F /  -16.9 °C 0.6 °F /  -17.4 °C 997.9in /  33788.9hPa East 4.3mph /  6.9km/h 11.1mph /  17.9km/h 93% 0.0in /  0mm WeatherDisplay:10.37 W/m2 FEW
09:45 1.6 °F /  -16.9 °C 0.6 °F /  -17.4 °C 997.9in /  33788.9hPa ESE 5.6mph /  9km/h 11.1mph /  17.9km/h 93% 0.0in /  0mm WeatherDisplay:10.37 W/m2 FEW
09:47 1.6 °F /  -16.9 °C 0.6 °F /  -17.4 °C 997.9in /  33788.9hPa ESE 1.3mph /  2.1km/h 7.4mph /  11.9km/h 93% 0.0in /  0mm WeatherDisplay:10.37 W/m2 FEW
09:52 1.6 °F /  -16.9 °C 0.6 °F /  -17.4 °C 997.9in /  33788.9hPa ENE 3.9mph /  6.3km/h 9.3mph /  15km/h 93% 0.0in /  0mm WeatherDisplay:10.37 W/m2 FEW
09:56 1.6 °F /  -16.9 °C 0.6 °F /  -17.4 °C 997.9in /  33788.9hPa ESE 1.6mph /  2.6km/h 9.7mph /  15.6km/h 93% 0.0in /  0mm WeatherDisplay:10.37 W/m2 FEW
10:01 1.6 °F /  -16.9 °C 0.6 °F /  -17.4 °C 997.9in /  33788.9hPa East 0.3mph /  0.5km/h 5.6mph /  9km/h 93% 0.0in /  0mm WeatherDisplay:10.37 W/m2 FEW
10:05 1.7 °F /  -16.8 °C 0.7 °F /  -17.4 °C 997.9in /  33788.9hPa East 1.9mph /  3.1km/h 5.6mph /  9km/h 93% 0.0in /  0mm WeatherDisplay:10.37 W/m2 FEW
10:11 1.7 °F /  -16.8 °C 0.7 °F /  -17.4 °C 997.9in /  33788.9hPa SE 6.9mph /  11.1km/h 13.0mph /  20.9km/h 93% 0.0in /  0mm WeatherDisplay:10.37 W/m2 FEW
10:17 1.6 °F /  -16.9 °C 0.6 °F /  -17.4 °C 997.9in /  33788.9hPa SSE 4.2mph /  6.8km/h 11.1mph /  17.9km/h 93% 0.0in /  0mm WeatherDisplay:10.37 W/m2 FEW
10:22 1.6 °F /  -16.9 °C 0.6 °F /  -17.4 °C 997.9in /  33788.9hPa ESE 4.0mph /  6.4km/h 9.3mph /  15km/h 93% 0.0in /  0mm WeatherDisplay:10.37 W/m2 FEW
10:30 1.6 °F /  -16.9 °C 0.6 °F /  -17.4 °C 997.9in /  33788.9hPa East 5.0mph /  8km/h 7.4mph /  11.9km/h 93% 0.0in /  0mm WeatherDisplay:10.37 W/m2 FEW
10:35 1.6 °F /  -16.9 °C 0.6 °F /  -17.4 °C 997.9in /  33788.9hPa East 0.8mph /  1.3km/h 5.6mph /  9km/h 93% 0.0in /  0mm WeatherDisplay:10.37 W/m2 FEW
10:38 1.6 °F /  -16.9 °C 0.6 °F /  -17.4 °C 997.9in /  33788.9hPa SE 0.6mph /  1km/h 5.6mph /  9km/h 93% 0.0in /  0mm WeatherDisplay:10.37 W/m2 FEW
10:46 1.6 °F /  -16.9 °C 0.6 °F /  -17.4 °C 997.9in /  33788.9hPa ESE 3.9mph /  6.3km/h 9.3mph /  15km/h 93% 0.0in /  0mm WeatherDisplay:10.37 W/m2 FEW
10:51 1.6 °F /  -16.9 °C 0.6 °F /  -17.4 °C 997.9in /  33788.9hPa ESE 1.0mph /  1.6km/h 5.6mph /  9km/h 93% 0.0in /  0mm WeatherDisplay:10.37 W/m2 FEW
10:56 1.6 °F /  -16.9 °C 0.6 °F /  -17.4 °C 997.9in /  33788.9hPa Calm     93% 0.0in /  0mm WeatherDisplay:10.37 W/m2 FEW
11:01 1.6 °F /  -16.9 °C 0.6 °F /  -17.4 °C 997.5in /  33775.4hPa ESE 1.6mph /  2.6km/h 9.3mph /  15km/h 93% 0.0in /  0mm WeatherDisplay:10.37 W/m2 FEW
11:07 1.7 °F /  -16.8 °C 0.7 °F /  -17.4 °C 997.5in /  33775.4hPa SW 1.0mph /  1.6km/h 5.6mph /  9km/h 93% 0.0in /  0mm WeatherDisplay:10.37 W/m2 FEW
11:11 1.7 °F /  -16.8 °C 0.7 °F /  -17.4 °C 997.5in /  33775.4hPa SSE 8.5mph /  13.7km/h 11.1mph /  17.9km/h 93% 0.0in /  0mm WeatherDisplay:10.37 W/m2 FEW
11:14 1.7 °F /  -16.8 °C 0.7 °F /  -17.4 °C 997.5in /  33775.4hPa East 5.8mph /  9.3km/h 13.0mph /  20.9km/h 93% 0.0in /  0mm WeatherDisplay:10.37 W/m2 FEW
11:16 1.7 °F /  -16.8 °C 0.7 °F /  -17.4 °C 997.5in /  33775.4hPa ESE 3.5mph /  5.6km/h 11.1mph /  17.9km/h 93% 0.0in /  0mm WeatherDisplay:10.37 W/m2 FEW
11:21 1.7 °F /  -16.8 °C 0.7 °F /  -17.4 °C 997.5in /  33775.4hPa Calm   5.6mph /  9km/h 93% 0.0in /  0mm WeatherDisplay:10.37 W/m2 FEW
11:26 1.7 °F /  -16.8 °C 0.7 °F /  -17.4 °C 997.5in /  33775.4hPa East 4.0mph /  6.4km/h 9.3mph /  15km/h 93% 0.0in /  0mm WeatherDisplay:10.37 W/m2 FEW
11:32 1.7 °F /  -16.8 °C 0.7 °F /  -17.4 °C 997.5in /  33775.4hPa ESE 3.9mph /  6.3km/h 7.4mph /  11.9km/h 93% 0.0in /  0mm WeatherDisplay:10.37 W/m2 FEW
11:37 1.7 °F /  -16.8 °C 0.7 °F /  -17.4 °C 997.5in /  33775.4hPa ESE 2.6mph /  4.2km/h 3.7mph /  6km/h 93% 0.0in /  0mm WeatherDisplay:10.37 W/m2 FEW
11:42 1.8 °F /  -16.8 °C 0.8 °F /  -17.3 °C 997.5in /  33775.4hPa Calm     93% 0.0in /  0mm WeatherDisplay:10.37 W/m2 FEW
11:47 1.7 °F /  -16.8 °C 0.7 °F /  -17.4 °C 997.5in /  33775.4hPa ESE 1.6mph /  2.6km/h 5.6mph /  9km/h 93% 0.0in /  0mm WeatherDisplay:10.37 W/m2 FEW
11:51 1.7 °F /  -16.8 °C 0.7 °F /  -17.4 °C 997.5in /  33775.4hPa East 2.3mph /  3.7km/h 5.6mph /  9km/h 93% 0.0in /  0mm WeatherDisplay:10.37 W/m2 FEW
11:56 1.8 °F /  -16.8 °C 0.8 °F /  -17.3 °C 997.5in /  33775.4hPa East 0.8mph /  1.3km/h 3.7mph /  6km/h 93% 0.0in /  0mm WeatherDisplay:10.37 W/m2 FEW
11:58 1.8 °F /  -16.8 °C 0.8 °F /  -17.3 °C 997.5in /  33775.4hPa East 1.1mph /  1.8km/h 3.7mph /  6km/h 93% 0.0in /  0mm WeatherDisplay:10.37 W/m2 FEW
12:01 1.8 °F /  -16.8 °C 0.8 °F /  -17.3 °C 997.2in /  33765.2hPa Calm   5.6mph /  9km/h 93% 0.0in /  0mm WeatherDisplay:10.37 W/m2 FEW
12:06 1.8 °F /  -16.8 °C 0.8 °F /  -17.3 °C 997.2in /  33765.2hPa East 0.3mph /  0.5km/h 6.4mph /  10.3km/h 93% 0.0in /  0mm WeatherDisplay:10.37 W/m2 FEW
12:09 1.8 °F /  -16.8 °C 0.8 °F /  -17.3 °C 997.2in /  33765.2hPa East 3.4mph /  5.5km/h 9.3mph /  15km/h 93% 0.0in /  0mm WeatherDisplay:10.37 W/m2 FEW
12:13 1.8 °F /  -16.8 °C 0.8 °F /  -17.3 °C 997.2in /  33765.2hPa ESE 4.0mph /  6.4km/h 9.7mph /  15.6km/h 93% 0.0in /  0mm WeatherDisplay:10.37 W/m2 FEW
12:18 1.8 °F /  -16.8 °C 0.9 °F /  -17.3 °C 997.2in /  33765.2hPa ESE 5.5mph /  8.9km/h 11.1mph /  17.9km/h 94% 0.0in /  0mm WeatherDisplay:10.37 W/m2 FEW
12:23 1.8 °F /  -16.8 °C 0.9 °F /  -17.3 °C 997.2in /  33765.2hPa East 1.9mph /  3.1km/h 7.4mph /  11.9km/h 94% 0.0in /  0mm WeatherDisplay:10.37 W/m2 FEW
12:28 1.8 °F /  -16.8 °C 0.9 °F /  -17.3 °C 997.2in /  33765.2hPa East 1.6mph /  2.6km/h 5.6mph /  9km/h 94% 0.0in /  0mm WeatherDisplay:10.37 W/m2 FEW
12:33 1.8 °F /  -16.8 °C 0.9 °F /  -17.3 °C 997.2in /  33765.2hPa East 1.0mph /  1.6km/h 9.3mph /  15km/h 94% 0.0in /  0mm WeatherDisplay:10.37 W/m2 FEW
12:38 1.8 °F /  -16.8 °C 0.9 °F /  -17.3 °C 997.2in /  33765.2hPa Calm   3.7mph /  6km/h 94% 0.0in /  0mm WeatherDisplay:10.37 W/m2 FEW
12:39 1.9 °F /  -16.7 °C 1.0 °F /  -17.2 °C 997.2in /  33765.2hPa East 1.4mph /  2.3km/h 5.6mph /  9km/h 94% 0.0in /  0mm WeatherDisplay:10.37 W/m2 FEW
12:40 1.8 °F /  -16.8 °C 0.9 °F /  -17.3 °C 997.2in /  33765.2hPa East 1.8mph /  2.9km/h 5.6mph /  9km/h 94% 0.0in /  0mm WeatherDisplay:10.37 W/m2 FEW
12:45 1.9 °F /  -16.7 °C 1.0 °F /  -17.2 °C 997.2in /  33765.2hPa East 1.0mph /  1.6km/h 5.6mph /  9km/h 94% 0.0in /  0mm WeatherDisplay:10.37 W/m2 FEW
12:50 1.9 °F /  -16.7 °C 1.0 °F /  -17.2 °C 997.2in /  33765.2hPa ESE 1.9mph /  3.1km/h 16.7mph /  26.9km/h 94% 0.0in /  0mm WeatherDisplay:10.37 W/m2 FEW
12:52 1.9 °F /  -16.7 °C 1.0 °F /  -17.2 °C 997.2in /  33765.2hPa East 0.8mph /  1.3km/h 5.6mph /  9km/h 94% 0.0in /  0mm WeatherDisplay:10.37 W/m2 FEW
12:57 1.9 °F /  -16.7 °C 1.0 °F /  -17.2 °C 997.2in /  33765.2hPa ENE 6.9mph /  11.1km/h 14.8mph /  23.8km/h 94% 0.0in /  0mm WeatherDisplay:10.37 W/m2 FEW
13:02 1.9 °F /  -16.7 °C 1.1 °F /  -17.2 °C 997.2in /  33765.2hPa ESE 1.0mph /  1.6km/h 9.3mph /  15km/h 94% 0.0in /  0mm WeatherDisplay:10.37 W/m2 FEW
13:04 1.9 °F /  -16.7 °C 1.1 °F /  -17.2 °C 997.2in /  33765.2hPa East 5.5mph /  8.9km/h 13.0mph /  20.9km/h 94% 0.0in /  0mm WeatherDisplay:10.37 W/m2 FEW
13:09 1.9 °F /  -16.7 °C 1.1 °F /  -17.2 °C 996.8in /  33751.6hPa ESE 4.2mph /  6.8km/h 5.6mph /  9km/h 94% 0.0in /  0mm WeatherDisplay:10.37 W/m2 FEW
13:14 1.9 °F /  -16.7 °C 1.1 °F /  -17.2 °C 996.8in /  33751.6hPa Calm   5.6mph /  9km/h 94% 0.0in /  0mm WeatherDisplay:10.37 W/m2 FEW
13:15 1.9 °F /  -16.7 °C 1.1 °F /  -17.2 °C 996.8in /  33751.6hPa East 1.4mph /  2.3km/h 9.3mph /  15km/h 94% 0.0in /  0mm WeatherDisplay:10.37 W/m2 FEW
13:20 1.9 °F /  -16.7 °C 1.1 °F /  -17.2 °C 996.8in /  33751.6hPa SE 6.6mph /  10.6km/h 11.1mph /  17.9km/h 94% 0.0in /  0mm WeatherDisplay:10.37 W/m2 FEW
13:24 1.9 °F /  -16.7 °C 1.1 °F /  -17.2 °C 996.8in /  33751.6hPa South 6.3mph /  10.1km/h 6.3mph /  10.1km/h 94% 0.0in /  0mm WeatherDisplay:10.37 W/m2 FEW
13:25 1.9 °F /  -16.7 °C 1.1 °F /  -17.2 °C 996.8in /  33751.6hPa East 5.1mph /  8.2km/h 13.0mph /  20.9km/h 94% 0.0in /  0mm WeatherDisplay:10.37 W/m2 FEW
13:30 1.9 °F /  -16.7 °C 1.1 °F /  -17.2 °C 996.8in /  33751.6hPa East 0.5mph /  0.8km/h 6.4mph /  10.3km/h 94% 0.0in /  0mm WeatherDisplay:10.37 W/m2 FEW
13:35 1.9 °F /  -16.7 °C 1.1 °F /  -17.2 °C 996.5in /  33741.5hPa SE 6.4mph /  10.3km/h 11.1mph /  17.9km/h 94% 0.0in /  0mm WeatherDisplay:10.37 W/m2 FEW
13:40 2.0 °F /  -16.7 °C 1.1 °F /  -17.2 °C 996.5in /  33741.5hPa ESE 5.8mph /  9.3km/h 9.3mph /  15km/h 94% 0.0in /  0mm WeatherDisplay:10.37 W/m2 FEW
13:45 2.0 °F /  -16.7 °C 1.1 °F /  -17.2 °C 996.5in /  33741.5hPa ENE 0.6mph /  1km/h 5.6mph /  9km/h 94% 0.0in /  0mm WeatherDisplay:10.37 W/m2 FEW
13:46 2.0 °F /  -16.7 °C 1.1 °F /  -17.2 °C 996.5in /  33741.5hPa ENE 0.6mph /  1km/h 5.6mph /  9km/h 94% 0.0in /  0mm WeatherDisplay:10.37 W/m2 FEW
13:51 2.0 °F /  -16.7 °C 1.1 °F /  -17.2 °C 996.5in /  33741.5hPa East 1.0mph /  1.6km/h 5.6mph /  9km/h 94% 0.0in /  0mm WeatherDisplay:10.37 W/m2 FEW
13:55 2.0 °F /  -16.7 °C 1.1 °F /  -17.2 °C 996.5in /  33741.5hPa ESE 1.8mph /  2.9km/h 5.6mph /  9km/h 94% 0.0in /  0mm WeatherDisplay:10.37 W/m2 FEW
14:00 2.0 °F /  -16.7 °C 1.1 °F /  -17.2 °C 996.5in /  33741.5hPa ESE 3.2mph /  5.1km/h 9.3mph /  15km/h 94% 0.0in /  0mm WeatherDisplay:10.37 W/m2 FEW
14:05 2.0 °F /  -16.7 °C 1.1 °F /  -17.2 °C 996.5in /  33741.5hPa East 3.4mph /  5.5km/h 11.1mph /  17.9km/h 94% 0.0in /  0mm WeatherDisplay:10.37 W/m2 FEW
14:07 2.0 °F /  -16.7 °C 1.1 °F /  -17.2 °C 996.5in /  33741.5hPa ESE 2.3mph /  3.7km/h 5.6mph /  9km/h 94% 0.0in /  0mm WeatherDisplay:10.37 W/m2 FEW
14:12 2.0 °F /  -16.7 °C 1.1 °F /  -17.2 °C 996.5in /  33741.5hPa East 2.6mph /  4.2km/h 11.1mph /  17.9km/h 94% 0.0in /  0mm WeatherDisplay:10.37 W/m2 FEW
14:17 2.0 °F /  -16.7 °C 1.1 °F /  -17.2 °C 996.5in /  33741.5hPa ESE 3.1mph /  5km/h 7.4mph /  11.9km/h 94% 0.0in /  0mm WeatherDisplay:10.37 W/m2 FEW
14:22 2.0 °F /  -16.7 °C 1.1 °F /  -17.2 °C 996.5in /  33741.5hPa SE 4.8mph /  7.7km/h 16.1mph /  25.9km/h 94% 0.0in /  0mm WeatherDisplay:10.37 W/m2 FEW
14:33 2.0 °F /  -16.7 °C 1.1 °F /  -17.2 °C 996.5in /  33741.5hPa East 6.6mph /  10.6km/h 11.1mph /  17.9km/h 94% 0.0in /  0mm WeatherDisplay:10.37 W/m2 FEW
14:38 2.1 °F /  -16.6 °C 1.2 °F /  -17.1 °C 996.5in /  33741.5hPa ENE 3.5mph /  5.6km/h 7.4mph /  11.9km/h 94% 0.0in /  0mm WeatherDisplay:10.37 W/m2 FEW
14:43 2.0 °F /  -16.7 °C 1.1 °F /  -17.2 °C 996.5in /  33741.5hPa East 3.7mph /  6km/h 11.1mph /  17.9km/h 94% 0.0in /  0mm WeatherDisplay:10.37 W/m2 FEW
14:48 2.0 °F /  -16.7 °C 1.1 °F /  -17.2 °C 996.5in /  33741.5hPa ESE 2.4mph /  3.9km/h 5.6mph /  9km/h 94% 0.0in /  0mm WeatherDisplay:10.37 W/m2 FEW
14:49 2.1 °F /  -16.6 °C 1.2 °F /  -17.1 °C 996.5in /  33741.5hPa ESE 3.1mph /  5km/h 5.6mph /  9km/h 94% 0.0in /  0mm WeatherDisplay:10.37 W/m2 FEW
14:54 2.1 °F /  -16.6 °C 1.2 °F /  -17.1 °C 996.5in /  33741.5hPa Calm     94% 0.0in /  0mm WeatherDisplay:10.37 W/m2 FEW
14:59 2.0 °F /  -16.7 °C 1.1 °F /  -17.2 °C 996.5in /  33741.5hPa East 0.3mph /  0.5km/h 4.8mph /  7.7km/h 94% 0.0in /  0mm WeatherDisplay:10.37 W/m2 FEW
15:00 2.0 °F /  -16.7 °C 1.1 °F /  -17.2 °C 996.5in /  33741.5hPa ESE 5.5mph /  8.9km/h 13.0mph /  20.9km/h 94% 0.0in /  0mm WeatherDisplay:10.37 W/m2 FEW
15:05 2.1 °F /  -16.6 °C 1.2 °F /  -17.1 °C 996.5in /  33741.5hPa ENE 6.0mph /  9.7km/h 6.0mph /  9.7km/h 94% 0.0in /  0mm WeatherDisplay:10.37 W/m2 FEW
15:09 2.1 °F /  -16.6 °C 1.2 °F /  -17.1 °C 996.5in /  33741.5hPa ESE 0.2mph /  0.3km/h 9.3mph /  15km/h 94% 0.0in /  0mm WeatherDisplay:10.37 W/m2 FEW
15:15 2.1 °F /  -16.6 °C 1.2 °F /  -17.1 °C 996.5in /  33741.5hPa East 1.6mph /  2.6km/h 5.6mph /  9km/h 94% 0.0in /  0mm WeatherDisplay:10.37 W/m2 FEW
15:20 2.1 °F /  -16.6 °C 1.2 °F /  -17.1 °C 996.2in /  33731.3hPa East 2.1mph /  3.4km/h 9.3mph /  15km/h 94% 0.0in /  0mm WeatherDisplay:10.37 W/m2 FEW
15:23 2.1 °F /  -16.6 °C 1.2 °F /  -17.1 °C 996.2in /  33731.3hPa East 1.0mph /  1.6km/h 5.6mph /  9km/h 94% 0.0in /  0mm WeatherDisplay:10.37 W/m2 FEW
15:24 2.1 °F /  -16.6 °C 1.2 °F /  -17.1 °C 996.2in /  33731.3hPa East 1.4mph /  2.3km/h 5.6mph /  9km/h 94% 0.0in /  0mm WeatherDisplay:10.37 W/m2 FEW
15:29 2.1 °F /  -16.6 °C 1.2 °F /  -17.1 °C 996.2in /  33731.3hPa ESE 1.6mph /  2.6km/h 5.6mph /  9km/h 94% 0.0in /  0mm WeatherDisplay:10.37 W/m2 FEW
15:32 2.1 °F /  -16.6 °C 1.2 °F /  -17.1 °C 996.2in /  33731.3hPa ENE 2.1mph /  3.4km/h 6.4mph /  10.3km/h 94% 0.0in /  0mm WeatherDisplay:10.37 W/m2 FEW
15:37 2.2 °F /  -16.6 °C 1.2 °F /  -17.1 °C 996.2in /  33731.3hPa East 1.9mph /  3.1km/h 5.6mph /  9km/h 93% 0.0in /  0mm WeatherDisplay:10.37 W/m2 FEW
15:43 2.1 °F /  -16.6 °C 1.1 °F /  -17.2 °C 995.8in /  33717.8hPa East 1.1mph /  1.8km/h 5.6mph /  9km/h 93% 0.0in /  0mm WeatherDisplay:10.37 W/m2 FEW
15:47 2.1 °F /  -16.6 °C 1.2 °F /  -17.1 °C 995.8in /  33717.8hPa SE 4.8mph /  7.7km/h 5.6mph /  9km/h 94% 0.0in /  0mm WeatherDisplay:10.37 W/m2 FEW
15:53 2.1 °F /  -16.6 °C 1.2 °F /  -17.1 °C 995.8in /  33717.8hPa ESE 8.0mph /  12.9km/h 16.7mph /  26.9km/h 94% 0.0in /  0mm WeatherDisplay:10.37 W/m2 FEW
15:58 2.1 °F /  -16.6 °C 1.2 °F /  -17.1 °C 995.8in /  33717.8hPa ESE 1.6mph /  2.6km/h 6.4mph /  10.3km/h 94% 0.0in /  0mm WeatherDisplay:10.37 W/m2 FEW
16:02 2.1 °F /  -16.6 °C 1.2 °F /  -17.1 °C 995.8in /  33717.8hPa ESE 4.3mph /  6.9km/h 11.1mph /  17.9km/h 94% 0.0in /  0mm WeatherDisplay:10.37 W/m2 FEW
16:07 2.1 °F /  -16.6 °C 1.2 °F /  -17.1 °C 995.8in /  33717.8hPa ENE 1.8mph /  2.9km/h 11.1mph /  17.9km/h 94% 0.0in /  0mm WeatherDisplay:10.37 W/m2 FEW
16:13 2.1 °F /  -16.6 °C 1.2 °F /  -17.1 °C 995.8in /  33717.8hPa East 4.2mph /  6.8km/h 9.3mph /  15km/h 94% 0.0in /  0mm WeatherDisplay:10.37 W/m2 FEW
16:18 2.1 °F /  -16.6 °C 1.2 °F /  -17.1 °C 995.8in /  33717.8hPa SE 4.8mph /  7.7km/h 13.0mph /  20.9km/h 94% 0.0in /  0mm WeatherDisplay:10.37 W/m2 FEW
16:21 2.1 °F /  -16.6 °C 1.2 °F /  -17.1 °C 995.8in /  33717.8hPa East 2.9mph /  4.7km/h 7.4mph /  11.9km/h 94% 0.0in /  0mm WeatherDisplay:10.37 W/m2 FEW
16:26 2.1 °F /  -16.6 °C 1.2 °F /  -17.1 °C 995.8in /  33717.8hPa SE 6.0mph /  9.7km/h 11.1mph /  17.9km/h 94% 0.0in /  0mm WeatherDisplay:10.37 W/m2 FEW
16:27 2.1 °F /  -16.6 °C 1.2 °F /  -17.1 °C 995.8in /  33717.8hPa ESE 5.3mph /  8.5km/h 7.4mph /  11.9km/h 94% 0.0in /  0mm WeatherDisplay:10.37 W/m2 FEW
16:30 2.1 °F /  -16.6 °C 1.2 °F /  -17.1 °C 995.8in /  33717.8hPa ESE 4.5mph /  7.2km/h 13.0mph /  20.9km/h 94% 0.0in /  0mm WeatherDisplay:10.37 W/m2 FEW
16:35 2.1 °F /  -16.6 °C 1.2 °F /  -17.1 °C 995.8in /  33717.8hPa East 6.0mph /  9.7km/h 13.0mph /  20.9km/h 94% 0.0in /  0mm WeatherDisplay:10.37 W/m2 FEW
16:40 2.1 °F /  -16.6 °C 1.2 °F /  -17.1 °C 995.8in /  33717.8hPa ESE 0.8mph /  1.3km/h 5.6mph /  9km/h 94% 0.0in /  0mm WeatherDisplay:10.37 W/m2 FEW
16:43 2.1 °F /  -16.6 °C 1.2 °F /  -17.1 °C 995.8in /  33717.8hPa ESE 0.2mph /  0.3km/h 1.9mph /  3.1km/h 94% 0.0in /  0mm WeatherDisplay:10.37 W/m2 FEW
16:48 2.1 °F /  -16.6 °C 1.2 °F /  -17.1 °C 995.8in /  33717.8hPa ESE 6.0mph /  9.7km/h 14.8mph /  23.8km/h 94% 0.0in /  0mm WeatherDisplay:10.37 W/m2 FEW
16:50 2.1 °F /  -16.6 °C 1.2 °F /  -17.1 °C 995.8in /  33717.8hPa East 3.1mph /  5km/h 13.0mph /  20.9km/h 94% 0.0in /  0mm WeatherDisplay:10.37 W/m2 FEW
16:55 2.1 °F /  -16.6 °C 1.2 °F /  -17.1 °C 995.8in /  33717.8hPa ESE 8.8mph /  14.2km/h 16.7mph /  26.9km/h 94% 0.0in /  0mm WeatherDisplay:10.37 W/m2 FEW
16:57 2.2 °F /  -16.6 °C 1.3 °F /  -17.1 °C 995.5in /  33707.6hPa ESE 4.8mph /  7.7km/h 9.3mph /  15km/h 94% 0.0in /  0mm WeatherDisplay:10.37 W/m2 FEW
17:03 2.1 °F /  -16.6 °C 1.2 °F /  -17.1 °C 995.8in /  33717.8hPa ESE 5.3mph /  8.5km/h 16.7mph /  26.9km/h 94% 0.0in /  0mm WeatherDisplay:10.37 W/m2 FEW
17:08 2.2 °F /  -16.6 °C 1.3 °F /  -17.1 °C 995.5in /  33707.6hPa NE 2.9mph /  4.7km/h 16.7mph /  26.9km/h 94% 0.0in /  0mm WeatherDisplay:10.37 W/m2 FEW
17:10 2.2 °F /  -16.6 °C 1.3 °F /  -17.1 °C 995.5in /  33707.6hPa SE 9.7mph /  15.6km/h 16.7mph /  26.9km/h 94% 0.0in /  0mm WeatherDisplay:10.37 W/m2 FEW
17:11 2.2 °F /  -16.6 °C 1.3 °F /  -17.1 °C 995.5in /  33707.6hPa ESE 7.1mph /  11.4km/h 14.8mph /  23.8km/h 94% 0.0in /  0mm WeatherDisplay:10.37 W/m2 FEW
17:15 2.2 °F /  -16.6 °C 1.3 °F /  -17.1 °C 995.5in /  33707.6hPa SE 2.3mph /  3.7km/h 5.6mph /  9km/h 94% 0.0in /  0mm WeatherDisplay:10.37 W/m2 FEW
17:20 2.2 °F /  -16.6 °C 1.3 °F /  -17.1 °C 995.5in /  33707.6hPa SE 6.1mph /  9.8km/h 14.8mph /  23.8km/h 94% 0.0in /  0mm WeatherDisplay:10.37 W/m2 FEW
17:24 2.2 °F /  -16.6 °C 1.3 °F /  -17.1 °C 995.5in /  33707.6hPa East 5.3mph /  8.5km/h 9.3mph /  15km/h 94% 0.0in /  0mm WeatherDisplay:10.37 W/m2 FEW
17:29 2.2 °F /  -16.6 °C 1.3 °F /  -17.1 °C 995.5in /  33707.6hPa East 6.3mph /  10.1km/h 13.0mph /  20.9km/h 94% 0.0in /  0mm WeatherDisplay:10.37 W/m2 FEW
17:34 2.2 °F /  -16.6 °C 1.3 °F /  -17.1 °C 995.5in /  33707.6hPa ESE 4.0mph /  6.4km/h 5.6mph /  9km/h 94% 0.0in /  0mm WeatherDisplay:10.37 W/m2 FEW
17:39 2.2 °F /  -16.6 °C 1.3 °F /  -17.1 °C 995.5in /  33707.6hPa ESE 4.3mph /  6.9km/h 11.1mph /  17.9km/h 94% 0.0in /  0mm WeatherDisplay:10.37 W/m2 FEW
17:43 2.2 °F /  -16.6 °C 1.3 °F /  -17.1 °C 995.5in /  33707.6hPa East 8.5mph /  13.7km/h 16.7mph /  26.9km/h 94% 0.0in /  0mm WeatherDisplay:10.37 W/m2 FEW
17:48 2.2 °F /  -16.6 °C 1.3 °F /  -17.1 °C 995.1in /  33694.1hPa ESE 1.8mph /  2.9km/h 5.6mph /  9km/h 94% 0.0in /  0mm WeatherDisplay:10.37 W/m2 FEW
17:51 2.3 °F /  -16.5 °C 1.4 °F /  -17 °C 995.5in /  33707.6hPa SE 2.3mph /  3.7km/h 9.3mph /  15km/h 94% 0.0in /  0mm WeatherDisplay:10.37 W/m2 FEW
17:53 2.3 °F /  -16.5 °C 1.4 °F /  -17 °C 995.1in /  33694.1hPa ESE 5.8mph /  9.3km/h 5.8mph /  9.3km/h 94% 0.0in /  0mm WeatherDisplay:10.37 W/m2 FEW
17:54 2.3 °F /  -16.5 °C 1.4 °F /  -17 °C 995.1in /  33694.1hPa SE 6.6mph /  10.6km/h 11.1mph /  17.9km/h 94% 0.0in /  0mm WeatherDisplay:10.37 W/m2 FEW
17:56 2.3 °F /  -16.5 °C 1.4 °F /  -17 °C 995.5in /  33707.6hPa Calm     94% 0.0in /  0mm WeatherDisplay:10.37 W/m2 FEW
18:01 2.3 °F /  -16.5 °C 1.4 °F /  -17 °C 995.5in /  33707.6hPa SE 2.7mph /  4.3km/h 6.4mph /  10.3km/h 94% 0.0in /  0mm WeatherDisplay:10.37 W/m2 FEW
18:06 2.3 °F /  -16.5 °C 1.4 °F /  -17 °C 995.1in /  33694.1hPa East 3.7mph /  6km/h 12.9mph /  20.8km/h 94% 0.0in /  0mm WeatherDisplay:10.37 W/m2 FEW
18:09 2.3 °F /  -16.5 °C 1.4 °F /  -17 °C 995.1in /  33694.1hPa SSE 5.1mph /  8.2km/h 11.1mph /  17.9km/h 94% 0.0in /  0mm WeatherDisplay:10.37 W/m2 FEW
18:14 2.2 °F /  -16.6 °C 1.3 °F /  -17.1 °C 995.1in /  33694.1hPa SSE 4.3mph /  6.9km/h 14.8mph /  23.8km/h 94% 0.3in /  7.62mm WeatherDisplay:10.37 W/m2 RA
18:19 2.2 °F /  -16.6 °C 1.3 °F /  -17.1 °C 995.1in /  33694.1hPa ENE 5.1mph /  8.2km/h 14.8mph /  23.8km/h 94% 0.3in /  7.62mm WeatherDisplay:10.37 W/m2 RA
18:25 2.2 °F /  -16.6 °C 1.3 °F /  -17.1 °C 995.1in /  33694.1hPa NE 4.7mph /  7.6km/h 11.1mph /  17.9km/h 94% 0.3in /  7.62mm WeatherDisplay:10.37 W/m2 FEW
18:28 2.2 °F /  -16.6 °C 1.3 °F /  -17.1 °C 995.1in /  33694.1hPa ENE 0.3mph /  0.5km/h 4.8mph /  7.7km/h 94% 0.3in /  7.62mm WeatherDisplay:10.37 W/m2 FEW
18:33 2.2 °F /  -16.6 °C 1.3 °F /  -17.1 °C 995.1in /  33694.1hPa East 8.8mph /  14.2km/h 18.5mph /  29.8km/h 94% 0.3in /  7.62mm WeatherDisplay:10.37 W/m2 FEW
18:38 2.2 °F /  -16.6 °C 1.3 °F /  -17.1 °C 995.1in /  33694.1hPa East 2.9mph /  4.7km/h 5.6mph /  9km/h 94% 0.3in /  7.62mm WeatherDisplay:10.37 W/m2 FEW
18:39 2.2 °F /  -16.6 °C 1.3 °F /  -17.1 °C 995.1in /  33694.1hPa East 1.1mph /  1.8km/h 5.6mph /  9km/h 94% 0.3in /  7.62mm WeatherDisplay:10.37 W/m2 FEW
18:40 2.2 °F /  -16.6 °C 1.3 °F /  -17.1 °C 995.1in /  33694.1hPa ENE 7.6mph /  12.2km/h 16.7mph /  26.9km/h 94% 0.3in /  7.62mm WeatherDisplay:10.37 W/m2 FEW
18:44 2.2 °F /  -16.6 °C 1.3 °F /  -17.1 °C 995.1in /  33694.1hPa East 8.5mph /  13.7km/h 18.5mph /  29.8km/h 94% 0.3in /  7.62mm WeatherDisplay:10.37 W/m2 FEW
18:45 2.2 °F /  -16.6 °C 1.3 °F /  -17.1 °C 995.1in /  33694.1hPa East 5.3mph /  8.5km/h 18.5mph /  29.8km/h 94% 0.3in /  7.62mm WeatherDisplay:10.37 W/m2 FEW
18:47 2.2 °F /  -16.6 °C 1.2 °F /  -17.1 °C 995.1in /  33694.1hPa SE 5.1mph /  8.2km/h 7.4mph /  11.9km/h 93% 0.3in /  7.62mm WeatherDisplay:10.37 W/m2 FEW
18:48 2.3 °F /  -16.5 °C 1.3 °F /  -17.1 °C 995.1in /  33694.1hPa ESE 3.2mph /  5.1km/h 9.3mph /  15km/h 93% 0.3in /  7.62mm WeatherDisplay:10.37 W/m2 FEW
18:53 2.3 °F /  -16.5 °C 1.3 °F /  -17.1 °C 994.8in /  33683.9hPa ESE 7.9mph /  12.7km/h 14.8mph /  23.8km/h 93% 0.3in /  7.62mm WeatherDisplay:10.37 W/m2 FEW
18:58 2.3 °F /  -16.5 °C 1.3 °F /  -17.1 °C 994.8in /  33683.9hPa ESE 7.6mph /  12.2km/h 13.0mph /  20.9km/h 93% 0.3in /  7.62mm WeatherDisplay:10.37 W/m2 FEW
19:03 2.3 °F /  -16.5 °C 1.3 °F /  -17.1 °C 995.1in /  33694.1hPa ENE 1.9mph /  3.1km/h 7.4mph /  11.9km/h 93% 0.3in /  7.62mm WeatherDisplay:10.37 W/m2 FEW
19:04 2.3 °F /  -16.5 °C 1.3 °F /  -17.1 °C 994.8in /  33683.9hPa South 2.3mph /  3.7km/h 5.6mph /  9km/h 93% 0.3in /  7.62mm WeatherDisplay:10.37 W/m2 FEW
19:09 2.3 °F /  -16.5 °C 1.3 °F /  -17.1 °C 994.8in /  33683.9hPa ENE 6.6mph /  10.6km/h 13.0mph /  20.9km/h 93% 0.3in /  7.62mm WeatherDisplay:10.37 W/m2 FEW
19:14 2.2 °F /  -16.6 °C 1.2 °F /  -17.1 °C 994.8in /  33683.9hPa NE 3.1mph /  5km/h 5.6mph /  9km/h 93% 0.0in /  0mm WeatherDisplay:10.37 W/m2 FEW
19:19 2.3 °F /  -16.5 °C 1.3 °F /  -17.1 °C 994.8in /  33683.9hPa East 9.5mph /  15.3km/h 18.5mph /  29.8km/h 93% 0.0in /  0mm WeatherDisplay:10.37 W/m2 FEW
19:24 2.3 °F /  -16.5 °C 1.3 °F /  -17.1 °C 994.8in /  33683.9hPa ENE 6.3mph /  10.1km/h 11.1mph /  17.9km/h 93% 0.0in /  0mm WeatherDisplay:10.37 W/m2 FEW
19:30 2.3 °F /  -16.5 °C 1.3 °F /  -17.1 °C 994.8in /  33683.9hPa East 5.6mph /  9km/h 13.0mph /  20.9km/h 93% 0.0in /  0mm WeatherDisplay:10.37 W/m2 FEW
19:35 2.3 °F /  -16.5 °C 1.3 °F /  -17.1 °C 994.8in /  33683.9hPa ESE 2.3mph /  3.7km/h 14.8mph /  23.8km/h 93% 0.0in /  0mm WeatherDisplay:10.37 W/m2 FEW
19:41 2.3 °F /  -16.5 °C 1.3 °F /  -17.1 °C 994.8in /  33683.9hPa ESE 6.6mph /  10.6km/h 11.1mph /  17.9km/h 93% 0.0in /  0mm WeatherDisplay:10.37 W/m2 FEW
19:47 2.3 °F /  -16.5 °C 1.3 °F /  -17.1 °C 994.5in /  33673.8hPa ESE 5.0mph /  8km/h 8.0mph /  12.9km/h 93% 0.0in /  0mm WeatherDisplay:10.37 W/m2 FEW
19:52 2.3 °F /  -16.5 °C 1.3 °F /  -17.1 °C 994.5in /  33673.8hPa ENE 0.2mph /  0.3km/h 5.6mph /  9km/h 93% 0.0in /  0mm WeatherDisplay:10.37 W/m2 FEW
19:53 2.3 °F /  -16.5 °C 1.3 °F /  -17.1 °C 994.5in /  33673.8hPa ENE 4.7mph /  7.6km/h 16.7mph /  26.9km/h 93% 0.0in /  0mm WeatherDisplay:10.37 W/m2 FEW
19:59 2.3 °F /  -16.5 °C 1.3 °F /  -17.1 °C 994.5in /  33673.8hPa ENE 7.1mph /  11.4km/h 16.7mph /  26.9km/h 93% 0.0in /  0mm WeatherDisplay:10.37 W/m2 FEW
20:02 2.3 °F /  -16.5 °C 1.3 °F /  -17.1 °C 994.5in /  33673.8hPa ESE 2.3mph /  3.7km/h 7.4mph /  11.9km/h 93% 0.0in /  0mm WeatherDisplay:10.37 W/m2 FEW
20:07 2.3 °F /  -16.5 °C 1.3 °F /  -17.1 °C 994.5in /  33673.8hPa ESE 2.3mph /  3.7km/h 9.3mph /  15km/h 93% 0.0in /  0mm WeatherDisplay:10.37 W/m2 FEW
20:13 2.4 °F /  -16.4 °C 1.4 °F /  -17 °C 994.5in /  33673.8hPa SE 3.2mph /  5.1km/h 9.3mph /  15km/h 93% 0.0in /  0mm WeatherDisplay:10.37 W/m2 FEW
20:16 2.4 °F /  -16.4 °C 1.4 °F /  -17 °C 994.5in /  33673.8hPa ESE 2.6mph /  4.2km/h 6.4mph /  10.3km/h 93% 0.0in /  0mm WeatherDisplay:10.37 W/m2 FEW
20:22 2.4 °F /  -16.4 °C 1.4 °F /  -17 °C 994.5in /  33673.8hPa South 3.7mph /  6km/h 11.1mph /  17.9km/h 93% 0.3in /  7.62mm WeatherDisplay:10.37 W/m2 RA
20:27 2.4 °F /  -16.4 °C 1.4 °F /  -17 °C 994.1in /  33660.2hPa ENE 2.7mph /  4.3km/h 5.6mph /  9km/h 93% 0.3in /  7.62mm WeatherDisplay:10.37 W/m2 RA
20:29 2.4 °F /  -16.4 °C 1.4 °F /  -17 °C 994.1in /  33660.2hPa SSE 4.3mph /  6.9km/h 11.1mph /  17.9km/h 93% 0.3in /  7.62mm WeatherDisplay:10.37 W/m2 FEW
20:35 2.4 °F /  -16.4 °C 1.4 °F /  -17 °C 994.1in /  33660.2hPa ENE 1.6mph /  2.6km/h 6.4mph /  10.3km/h 93% 0.3in /  7.62mm WeatherDisplay:10.37 W/m2 FEW
20:40 2.4 °F /  -16.4 °C 1.4 °F /  -17 °C 994.1in /  33660.2hPa East 6.9mph /  11.1km/h 13.0mph /  20.9km/h 93% 0.3in /  7.62mm WeatherDisplay:10.37 W/m2 FEW
20:43 2.4 °F /  -16.4 °C 1.4 °F /  -17 °C 994.1in /  33660.2hPa South 10.1mph /  16.3km/h 14.5mph /  23.3km/h 93% 0.3in /  7.62mm WeatherDisplay:10.37 W/m2 FEW
20:49 2.4 °F /  -16.4 °C 1.4 °F /  -17 °C 994.1in /  33660.2hPa SE 10.9mph /  17.5km/h 18.5mph /  29.8km/h 93% 0.3in /  7.62mm WeatherDisplay:10.37 W/m2 FEW
20:54 2.4 °F /  -16.4 °C 1.4 °F /  -17 °C 994.1in /  33660.2hPa East 3.4mph /  5.5km/h 5.6mph /  9km/h 93% 0.3in /  7.62mm WeatherDisplay:10.37 W/m2 FEW
20:59 2.4 °F /  -16.4 °C 1.4 °F /  -17 °C 993.8in /  33650.1hPa ESE 8.5mph /  13.7km/h 14.8mph /  23.8km/h 93% 0.3in /  7.62mm WeatherDisplay:10.37 W/m2 FEW
21:04 2.4 °F /  -16.4 °C 1.4 °F /  -17 °C 993.8in /  33650.1hPa SE 8.5mph /  13.7km/h 14.8mph /  23.8km/h 93% 0.3in /  7.62mm WeatherDisplay:10.37 W/m2 FEW
21:10 2.4 °F /  -16.4 °C 1.4 °F /  -17 °C 993.8in /  33650.1hPa East 2.4mph /  3.9km/h 9.3mph /  15km/h 93% 0.3in /  7.62mm WeatherDisplay:10.37 W/m2 FEW
21:15 2.4 °F /  -16.4 °C 1.4 °F /  -17 °C 993.8in /  33650.1hPa ESE 5.3mph /  8.5km/h 9.7mph /  15.6km/h 93% 0.3in /  7.62mm WeatherDisplay:10.37 W/m2 FEW
21:20 2.4 °F /  -16.4 °C 1.4 °F /  -17 °C 993.8in /  33650.1hPa East 5.0mph /  8km/h 7.4mph /  11.9km/h 93% 0.0in /  0mm WeatherDisplay:10.37 W/m2 FEW
21:26 2.4 °F /  -16.4 °C 1.4 °F /  -17 °C 993.8in /  33650.1hPa SSE 4.3mph /  6.9km/h 9.3mph /  15km/h 93% 0.0in /  0mm WeatherDisplay:10.37 W/m2 FEW
21:31 2.4 °F /  -16.4 °C 1.4 °F /  -17 °C 993.8in /  33650.1hPa ENE 0.3mph /  0.5km/h 3.7mph /  6km/h 93% 0.0in /  0mm WeatherDisplay:10.37 W/m2 FEW
21:36 2.4 °F /  -16.4 °C 1.4 °F /  -17 °C 993.8in /  33650.1hPa SSW 4.0mph /  6.4km/h 11.1mph /  17.9km/h 93% 0.0in /  0mm WeatherDisplay:10.37 W/m2 FEW
21:43 2.4 °F /  -16.4 °C 1.4 °F /  -17 °C 993.8in /  33650.1hPa East 1.1mph /  1.8km/h 6.4mph /  10.3km/h 93% 0.0in /  0mm WeatherDisplay:10.37 W/m2 FEW
21:49 2.5 °F /  -16.4 °C 1.5 °F /  -16.9 °C 993.8in /  33650.1hPa ESE 3.7mph /  6km/h 18.5mph /  29.8km/h 93% 0.0in /  0mm WeatherDisplay:10.37 W/m2 FEW
21:54 2.5 °F /  -16.4 °C 1.5 °F /  -16.9 °C 993.8in /  33650.1hPa East 4.5mph /  7.2km/h 6.4mph /  10.3km/h 93% 0.0in /  0mm WeatherDisplay:10.37 W/m2 FEW
21:59 2.5 °F /  -16.4 °C 1.5 °F /  -16.9 °C 993.8in /  33650.1hPa ESE 5.5mph /  8.9km/h 11.1mph /  17.9km/h 93% 0.0in /  0mm WeatherDisplay:10.37 W/m2 FEW
22:04 2.5 °F /  -16.4 °C 1.5 °F /  -16.9 °C 993.8in /  33650.1hPa ESE 4.0mph /  6.4km/h 5.6mph /  9km/h 93% 0.0in /  0mm WeatherDisplay:10.37 W/m2 FEW
22:09 2.6 °F /  -16.3 °C 1.6 °F /  -16.9 °C 993.5in /  33639.9hPa East 6.3mph /  10.1km/h 13.0mph /  20.9km/h 93% 0.0in /  0mm WeatherDisplay:10.37 W/m2 FEW
22:14 2.6 °F /  -16.3 °C 1.6 °F /  -16.9 °C 993.5in /  33639.9hPa ESE 3.9mph /  6.3km/h 9.3mph /  15km/h 93% 0.0in /  0mm WeatherDisplay:10.37 W/m2 FEW
22:19 2.6 °F /  -16.3 °C 1.6 °F /  -16.9 °C 993.5in /  33639.9hPa ESE 3.4mph /  5.5km/h 7.4mph /  11.9km/h 93% 0.0in /  0mm WeatherDisplay:10.37 W/m2 FEW
22:21 2.6 °F /  -16.3 °C 1.6 °F /  -16.9 °C 993.5in /  33639.9hPa ESE 4.5mph /  7.2km/h 16.7mph /  26.9km/h 93% 0.0in /  0mm WeatherDisplay:10.37 W/m2 FEW
22:28 2.6 °F /  -16.3 °C 1.6 °F /  -16.9 °C 993.5in /  33639.9hPa SE 7.9mph /  12.7km/h 16.7mph /  26.9km/h 93% 0.0in /  0mm WeatherDisplay:10.37 W/m2 FEW
22:32 2.6 °F /  -16.3 °C 1.6 °F /  -16.9 °C 993.5in /  33639.9hPa ESE 7.4mph /  11.9km/h 9.7mph /  15.6km/h 93% 0.0in /  0mm WeatherDisplay:10.37 W/m2 FEW
22:37 2.6 °F /  -16.3 °C 1.6 °F /  -16.9 °C 993.5in /  33639.9hPa SE 2.6mph /  4.2km/h 12.9mph /  20.8km/h 93% 0.0in /  0mm WeatherDisplay:10.37 W/m2 FEW
22:38 2.6 °F /  -16.3 °C 1.6 °F /  -16.9 °C 993.5in /  33639.9hPa SE 4.3mph /  6.9km/h 13.0mph /  20.9km/h 93% 0.0in /  0mm WeatherDisplay:10.37 W/m2 FEW
22:43 2.7 °F /  -16.3 °C 1.7 °F /  -16.8 °C 993.5in /  33639.9hPa ENE 6.1mph /  9.8km/h 13.0mph /  20.9km/h 93% 0.0in /  0mm WeatherDisplay:10.37 W/m2 FEW
22:45 2.7 °F /  -16.3 °C 1.7 °F /  -16.8 °C 993.1in /  33626.4hPa East 1.1mph /  1.8km/h 9.3mph /  15km/h 93% 0.0in /  0mm WeatherDisplay:10.37 W/m2 FEW
22:50 2.7 °F /  -16.3 °C 1.7 °F /  -16.8 °C 993.1in /  33626.4hPa SE 5.5mph /  8.9km/h 8.0mph /  12.9km/h 93% 0.0in /  0mm WeatherDisplay:10.37 W/m2 FEW
22:56 2.7 °F /  -16.3 °C 1.7 °F /  -16.8 °C 993.1in /  33626.4hPa SE 8.7mph /  14km/h 14.8mph /  23.8km/h 93% 0.0in /  0mm WeatherDisplay:10.37 W/m2 FEW
23:15 2.7 °F /  -16.3 °C 1.7 °F /  -16.8 °C 993.1in /  33626.4hPa ESE 3.4mph /  5.5km/h 4.8mph /  7.7km/h 93% 0.5in /  12.7mm WeatherDisplay:10.37 W/m2 RA
23:29 2.7 °F /  -16.3 °C 1.7 °F /  -16.8 °C 993.1in /  33626.4hPa Calm     93% 0.8in /  20.32mm WeatherDisplay:10.37 W/m2 RA
23:33 2.6 °F /  -16.3 °C 1.6 °F /  -16.9 °C 992.8in /  33616.2hPa East 8.5mph /  13.7km/h 14.8mph /  23.8km/h 93% 1.0in /  25.4mm WeatherDisplay:10.37 W/m2 RA
23:35 2.6 °F /  -16.3 °C 1.6 °F /  -16.9 °C 992.8in /  33616.2hPa East 3.7mph /  6km/h 13.0mph /  20.9km/h 93% 1.0in /  25.4mm WeatherDisplay:10.37 W/m2 RA
23:43 2.6 °F /  -16.3 °C 1.6 °F /  -16.9 °C 992.8in /  33616.2hPa Calm     93% 1.5in /  38.1mm WeatherDisplay:10.37 W/m2 RA
23:44 2.6 °F /  -16.3 °C 1.6 °F /  -16.9 °C 992.8in /  33616.2hPa SE 0.2mph /  0.3km/h 5.6mph /  9km/h 93% 1.5in /  38.1mm WeatherDisplay:10.37 W/m2 RA
23:46 2.6 °F /  -16.3 °C 1.6 °F /  -16.9 °C 992.8in /  33616.2hPa East 5.0mph /  8km/h 13.0mph /  20.9km/h 93% 1.5in /  38.1mm WeatherDisplay:10.37 W/m2 RA
23:47 2.6 °F /  -16.3 °C 1.6 °F /  -16.9 °C 992.8in /  33616.2hPa ESE 4.2mph /  6.8km/h 5.6mph /  9km/h 93% 1.5in /  38.1mm WeatherDisplay:10.37 W/m2 RA
23:50 2.6 °F /  -16.3 °C 1.6 °F /  -16.9 °C 992.8in /  33616.2hPa East 7.9mph /  12.7km/h 14.8mph /  23.8km/h 93% 1.5in /  38.1mm WeatherDisplay:10.37 W/m2 RA
23:52 2.6 °F /  -16.3 °C 1.6 °F /  -16.9 °C 992.8in /  33616.2hPa ENE 4.5mph /  7.2km/h 20.4mph /  32.8km/h 93% 1.5in /  38.1mm WeatherDisplay:10.37 W/m2 RA
23:53 2.5 °F /  -16.4 °C 1.5 °F /  -16.9 °C 992.8in /  33616.2hPa South 0.3mph /  0.5km/h 8.0mph /  12.9km/h 93% 1.5in /  38.1mm WeatherDisplay:10.37 W/m2 RA
23:56 2.5 °F /  -16.4 °C 1.5 °F /  -16.9 °C 992.8in /  33616.2hPa SE 7.6mph /  12.2km/h 7.6mph /  12.2km/h 93% 1.8in /  45.72mm WeatherDisplay:10.37 W/m2 RA
23:58 2.5 °F /  -16.4 °C 1.5 °F /  -16.9 °C 992.8in /  33616.2hPa East 9.3mph /  15km/h 18.5mph /  29.8km/h 93% 2.0in /  50.8mm WeatherDisplay:10.37 W/m2 RA
23:59 2.4 °F /  -16.4 °C 1.4 °F /  -17 °C 992.8in /  33616.2hPa ESE 5.1mph /  8.2km/h 11.1mph /  17.9km/h 93% 1.8in /  45.72mm WeatherDisplay:10.37 W/m2 RA
Tuulensuunkaari, Veikkola, Suomi
Compliments of Weather Underground - 3 mb